Thursday 25th May 2017 - KPAO 251547Z 11005KT 10SM BKN030 16/10 A2977

Aircraft Rentals Bay Area

Cessna 152

Cessna Skycatcher 162

Cessna Skycatcher 162

Cessna Skyhawk 172N

Cessna Skyhawk 172SP

Cessna Skyhawk 172SP G-1000

Cessna 182P

Cessna Skylane 182T

Cessna Skylane Turbo T182T

Cessna Skywagon Turbo T206H

Pipers

Diamond

Mooney

Cirrus

Beechcraft Duchess

Tail Wheel - Citabria

Tail Wheel - Stearman/Great Lakes

Tail Wheel - Aerobatic

War Birds

Advantage Aviation